createdAt,value
2016-05-12T00:00:06.992Z,1003.18
2016-05-12T00:01:07.120Z,1003.19
2016-05-12T00:02:07.044Z,1003.19
2016-05-12T00:03:07.063Z,1003.21
2016-05-12T00:05:07.114Z,1003.23
2016-05-12T00:06:07.133Z,1003.21
2016-05-12T00:07:07.151Z,1003.22
2016-05-12T00:08:07.185Z,1003.19
2016-05-12T00:09:07.204Z,1003.24
2016-05-12T00:10:07.237Z,1003.18
2016-05-12T00:11:07.256Z,1003.15
2016-05-12T00:12:07.274Z,1003.12
2016-05-12T00:13:07.293Z,1003.13
2016-05-12T00:14:07.327Z,1003.18
2016-05-12T00:15:07.345Z,1003.19
2016-05-12T00:16:07.363Z,1003.18
2016-05-12T00:17:07.396Z,1003.17
2016-05-12T00:18:07.415Z,1003.2
2016-05-12T00:19:07.434Z,1003.17
2016-05-12T00:21:07.486Z,1003.15
2016-05-12T00:22:07.504Z,1003.13
2016-05-12T00:23:07.522Z,1003.18
2016-05-12T00:24:07.541Z,1003.12
2016-05-12T00:25:07.576Z,1003.09
2016-05-12T00:26:07.593Z,1003.04
2016-05-12T00:27:07.611Z,1003.12
2016-05-12T00:28:07.645Z,1003.08
2016-05-12T00:29:07.663Z,1003.07
2016-05-12T00:30:07.681Z,1003.07
2016-05-12T00:31:07.700Z,1003.06
2016-05-12T00:32:07.734Z,1003.06
2016-05-12T00:33:07.753Z,1003.08
2016-05-12T00:34:07.771Z,1003.06
2016-05-12T00:35:07.789Z,1003
2016-05-12T00:37:07.841Z,1003.09
2016-05-12T00:38:07.860Z,1003.11
2016-05-12T00:39:07.894Z,1003.06
2016-05-12T00:40:07.913Z,1003.01
2016-05-12T00:41:07.930Z,1003.02
2016-05-12T00:42:07.949Z,1003.13
2016-05-12T00:43:07.982Z,1003
2016-05-12T00:44:08.001Z,1003.06
2016-05-12T00:45:08.018Z,1003.03
2016-05-12T00:46:08.053Z,1003.06
2016-05-12T00:47:08.072Z,1003.08
2016-05-12T00:48:08.090Z,1003.06
2016-05-12T00:49:08.108Z,1002.99
2016-05-12T00:50:08.142Z,1003.02
2016-05-12T00:51:08.160Z,1002.97
2016-05-12T00:53:08.212Z,1002.98
2016-05-12T00:54:08.231Z,1002.94
2016-05-12T00:55:08.249Z,1002.92
2016-05-12T00:56:08.283Z,1002.87
2016-05-12T00:57:08.301Z,1002.92
2016-05-12T00:58:08.320Z,1002.93
2016-05-12T00:59:08.339Z,1002.91
2016-05-12T01:00:08.372Z,1002.84
2016-05-12T01:01:08.389Z,1002.85
2016-05-12T01:02:08.409Z,1002.83
2016-05-12T01:03:08.443Z,1002.81
2016-05-12T01:04:08.461Z,1002.77
2016-05-12T01:05:08.479Z,1002.79
2016-05-12T01:06:08.497Z,1002.83
2016-05-12T01:08:08.550Z,1002.82
2016-05-12T01:09:08.569Z,1002.79
2016-05-12T01:10:08.586Z,1002.82
2016-05-12T01:11:08.621Z,1002.83
2016-05-12T01:12:08.638Z,1002.8
2016-05-12T01:13:08.657Z,1002.78
2016-05-12T01:14:08.675Z,1002.76
2016-05-12T01:15:08.710Z,1002.73
2016-05-12T01:16:08.728Z,1002.7
2016-05-12T01:17:08.746Z,1002.73
2016-05-12T01:18:08.764Z,1002.76
2016-05-12T01:19:08.798Z,1002.73
2016-05-12T01:20:08.816Z,1002.77
2016-05-12T01:21:08.834Z,1002.75
2016-05-12T01:22:08.869Z,1002.72
2016-05-12T01:23:08.887Z,1002.75
2016-05-12T01:24:08.906Z,1002.73
2016-05-12T01:25:08.924Z,1002.75
2016-05-12T01:26:08.957Z,1002.74
2016-05-12T01:27:08.976Z,1002.69
2016-05-12T01:28:08.994Z,1002.69
2016-05-12T01:29:09.012Z,1002.73
2016-05-12T01:30:09.047Z,1002.69
2016-05-12T01:31:09.065Z,1002.75
2016-05-12T01:32:09.083Z,1002.74
2016-05-12T01:33:09.117Z,1002.69
2016-05-12T01:34:09.135Z,1002.73
2016-05-12T01:35:09.153Z,1002.7
2016-05-12T01:36:09.188Z,1002.67
2016-05-12T01:37:09.206Z,1002.7
2016-05-12T01:38:09.225Z,1002.64
2016-05-12T01:40:09.261Z,1002.68
2016-05-12T01:41:09.294Z,1002.64
2016-05-12T01:42:09.314Z,1002.61
2016-05-12T01:43:09.332Z,1002.68
2016-05-12T01:44:09.365Z,1002.68
2016-05-12T01:45:09.383Z,1002.65
2016-05-12T01:46:09.402Z,1002.63
2016-05-12T01:47:09.436Z,1002.69
2016-05-12T01:48:09.454Z,1002.72
2016-05-12T01:49:09.473Z,1002.63
2016-05-12T01:50:09.491Z,1002.64
2016-05-12T01:51:09.509Z,1002.66
2016-05-12T01:52:09.543Z,1002.6
2016-05-12T01:53:09.562Z,1002.64
2016-05-12T01:54:09.579Z,1002.6
2016-05-12T01:56:09.632Z,1002.62
2016-05-12T01:57:09.651Z,1002.61
2016-05-12T01:58:09.668Z,1002.62
2016-05-12T01:59:09.703Z,1002.56
2016-05-12T02:00:09.721Z,1002.58
2016-05-12T02:01:09.739Z,1002.59
2016-05-12T02:02:09.757Z,1002.59
2016-05-12T02:03:09.791Z,1002.61
2016-05-12T02:04:09.810Z,1002.56
2016-05-12T02:05:09.828Z,1002.57
2016-05-12T02:06:09.846Z,1002.57
2016-05-12T02:07:09.880Z,1002.59
2016-05-12T02:08:09.899Z,1002.58
2016-05-12T02:09:09.917Z,1002.59
2016-05-12T02:10:09.950Z,1002.56
2016-05-12T02:12:09.988Z,1002.6
2016-05-12T02:13:10.005Z,1002.53
2016-05-12T02:14:10.040Z,1002.59
2016-05-12T02:15:10.058Z,1002.54
2016-05-12T02:16:10.076Z,1002.54
2016-05-12T02:17:10.095Z,1002.57
2016-05-12T02:18:10.129Z,1002.56
2016-05-12T02:19:10.146Z,1002.54
2016-05-12T02:20:10.182Z,1002.5
2016-05-12T02:21:10.184Z,1002.53
2016-05-12T02:22:10.218Z,1002.56
2016-05-12T02:23:10.235Z,1002.53
2016-05-12T02:24:10.254Z,1002.51
2016-05-12T02:25:10.288Z,1002.5
2016-05-12T02:26:10.307Z,1002.5
2016-05-12T02:28:10.343Z,1002.51
2016-05-12T02:29:10.361Z,1002.5
2016-05-12T02:30:10.395Z,1002.53
2016-05-12T02:31:10.414Z,1002.5
2016-05-12T02:32:10.432Z,1002.48
2016-05-12T02:33:10.467Z,1002.5
2016-05-12T02:34:10.484Z,1002.47
2016-05-12T02:35:10.502Z,1002.44
2016-05-12T02:36:10.537Z,1002.42
2016-05-12T02:37:10.539Z,1002.45
2016-05-12T02:38:10.572Z,1002.39
2016-05-12T02:39:10.592Z,1002.41
2016-05-12T02:40:10.610Z,1002.39
2016-05-12T02:41:10.644Z,1002.41
2016-05-12T02:43:10.743Z,1002.36
2016-05-12T02:44:10.699Z,1002.41
2016-05-12T02:45:10.716Z,1002.4
2016-05-12T02:46:10.751Z,1002.37
2016-05-12T02:47:10.769Z,1002.37
2016-05-12T02:48:10.788Z,1002.32
2016-05-12T02:49:10.821Z,1002.35
2016-05-12T02:50:10.840Z,1002.35
2016-05-12T02:51:10.858Z,1002.34
2016-05-12T02:52:10.877Z,1002.34
2016-05-12T02:53:10.910Z,1002.33
2016-05-12T02:54:10.929Z,1002.27
2016-05-12T02:55:10.946Z,1002.25
2016-05-12T02:56:10.965Z,1002.23
2016-05-12T02:57:11.014Z,1002.26
2016-05-12T02:58:11.017Z,1002.3
2016-05-12T02:59:11.037Z,1002.29
2016-05-12T03:00:11.054Z,1002.23
2016-05-12T03:01:11.088Z,1002.24
2016-05-12T03:02:11.106Z,1002.25
2016-05-12T03:03:11.125Z,1002.24
2016-05-12T03:04:11.142Z,1002.21
2016-05-12T03:05:11.178Z,1002.21
2016-05-12T03:06:11.195Z,1002.17
2016-05-12T03:07:11.214Z,1002.15
2016-05-12T03:08:11.231Z,1002.17
2016-05-12T03:09:11.266Z,1002.18
2016-05-12T03:10:11.284Z,1002.19
2016-05-12T03:11:11.303Z,1002.15
2016-05-12T03:12:11.321Z,1002.19
2016-05-12T03:13:11.355Z,1002.15
2016-05-12T03:15:11.391Z,1002.15
2016-05-12T03:16:11.410Z,1002.15
2016-05-12T03:17:11.443Z,1002.13
2016-05-12T03:18:11.463Z,1002.19
2016-05-12T03:19:11.480Z,1002.17
2016-05-12T03:20:11.499Z,1002.21
2016-05-12T03:21:11.517Z,1002.18
2016-05-12T03:22:11.551Z,1002.19
2016-05-12T03:23:11.568Z,1002.14
2016-05-12T03:24:11.587Z,1002.14
2016-05-12T03:25:11.606Z,1002.19
2016-05-12T03:26:11.640Z,1002.22
2016-05-12T03:27:11.657Z,1002.22
2016-05-12T03:28:11.676Z,1002.19
2016-05-12T03:29:11.710Z,1002.16
2016-05-12T03:31:11.747Z,1002.17
2016-05-12T03:32:11.765Z,1002.15
2016-05-12T03:33:11.784Z,1002.18
2016-05-12T03:34:11.817Z,1002.16
2016-05-12T03:35:11.836Z,1002.16
2016-05-12T03:36:11.853Z,1002.18
2016-05-12T03:37:11.872Z,1002.18
2016-05-12T03:38:11.906Z,1002.18
2016-05-12T03:39:11.925Z,1002.18
2016-05-12T03:40:11.943Z,1002.22
2016-05-12T03:41:11.961Z,1002.23
2016-05-12T03:42:11.994Z,1002.19
2016-05-12T03:43:12.013Z,1002.21
2016-05-12T03:44:12.032Z,1002.21
2016-05-12T03:45:12.050Z,1002.22
2016-05-12T03:47:12.102Z,1002.25
2016-05-12T03:48:12.121Z,1002.23
2016-05-12T03:49:12.139Z,1002.19
2016-05-12T03:50:12.173Z,1002.2
2016-05-12T03:51:12.191Z,1002.16
2016-05-12T03:52:12.210Z,1002.15
2016-05-12T03:53:12.244Z,1002.21
2016-05-12T03:54:12.262Z,1002.18
2016-05-12T03:55:12.280Z,1002.18
2016-05-12T03:56:12.298Z,1002.21
2016-05-12T03:57:12.317Z,1002.19
2016-05-12T03:58:12.351Z,1002.19
2016-05-12T03:59:12.369Z,1002.2
2016-05-12T04:00:12.388Z,1002.19
2016-05-12T04:01:12.640Z,1002.17
2016-05-12T04:03:12.458Z,1002.12
2016-05-12T04:04:12.476Z,1002.11
2016-05-12T04:05:12.495Z,1002.14
2016-05-12T04:06:12.529Z,1002.12
2016-05-12T04:07:12.547Z,1002.14
2016-05-12T04:08:12.565Z,1002.14
2016-05-12T04:09:12.599Z,1002.17
2016-05-12T04:10:12.617Z,1002.12
2016-05-12T04:11:12.636Z,1002.13
2016-05-12T04:12:12.654Z,1002.12
2016-05-12T04:13:12.672Z,1002.12
2016-05-12T04:14:12.706Z,1002.14
2016-05-12T04:15:12.724Z,1002.15
2016-05-12T04:16:12.743Z,1002.16
2016-05-12T04:18:12.794Z,1002.11
2016-05-12T04:19:12.814Z,1002.05
2016-05-12T04:20:12.832Z,1002.12
2016-05-12T04:21:12.866Z,1002.11
2016-05-12T04:22:12.884Z,1002.08
2016-05-12T04:23:12.902Z,1002.11
2016-05-12T04:24:12.920Z,1002.14
2016-05-12T04:25:12.954Z,1002.08
2016-05-12T04:26:12.973Z,1002.12
2016-05-12T04:27:12.991Z,1002.09
2016-05-12T04:28:13.009Z,1002.07
2016-05-12T04:29:13.043Z,1002.05
2016-05-12T04:30:13.062Z,1002.01
2016-05-12T04:31:13.096Z,1001.98
2016-05-12T04:32:13.098Z,1002.03
2016-05-12T04:33:13.132Z,1001.97
2016-05-12T04:34:13.151Z,1001.98
2016-05-12T04:35:13.169Z,1002.01
2016-05-12T04:36:13.203Z,1002.05
2016-05-12T04:37:13.220Z,1002
2016-05-12T04:38:13.240Z,1001.99
2016-05-12T04:39:13.259Z,1001.99
2016-05-12T04:40:13.292Z,1002.01
2016-05-12T04:41:13.310Z,1002
2016-05-12T04:42:13.328Z,1002.01
2016-05-12T04:43:13.361Z,1002.02
2016-05-12T04:44:13.397Z,1001.98
2016-05-12T04:45:13.400Z,1002
2016-05-12T04:46:13.417Z,1002.01
2016-05-12T04:47:13.452Z,1002.05
2016-05-12T04:48:13.469Z,1002.1
2016-05-12T04:50:13.505Z,1002.01
2016-05-12T04:51:13.541Z,1002.04
2016-05-12T04:52:13.558Z,1002.02
2016-05-12T04:53:13.577Z,1002.07
2016-05-12T04:54:13.610Z,1002.08
2016-05-12T04:55:13.629Z,1002.09
2016-05-12T04:56:13.647Z,1002.05
2016-05-12T04:57:13.682Z,1002.03
2016-05-12T04:58:13.699Z,1002.13
2016-05-12T04:59:13.734Z,1002.08
2016-05-12T05:00:13.752Z,1002.05
2016-05-12T05:01:13.770Z,1002.07
2016-05-12T05:02:13.804Z,1002.08
2016-05-12T05:03:13.822Z,1002.14
2016-05-12T05:04:19.576Z,1002.13
2016-05-12T05:06:13.909Z,1002.15
2016-05-12T05:07:13.927Z,1002.17
2016-05-12T05:08:13.945Z,1002.19
2016-05-12T05:09:13.979Z,1002.17
2016-05-12T05:10:13.997Z,1002.15
2016-05-12T05:11:14.031Z,1002.19
2016-05-12T05:12:14.050Z,1002.19
2016-05-12T05:13:14.084Z,1002.17
2016-05-12T05:14:14.102Z,1002.16
2016-05-12T05:15:14.136Z,1002.15
2016-05-12T05:16:14.169Z,1002.19
2016-05-12T05:17:14.188Z,1002.23
2016-05-12T05:18:14.222Z,1002.14
2016-05-12T05:19:14.241Z,1002.15
2016-05-12T05:20:14.274Z,1002.19
2016-05-12T05:22:14.327Z,1002.21
2016-05-12T05:23:14.360Z,1002.17
2016-05-12T05:24:14.380Z,1002.22
2016-05-12T05:25:14.413Z,1002.17
2016-05-12T05:26:14.432Z,1002.16
2016-05-12T05:27:14.465Z,1002.17
2016-05-12T05:28:14.499Z,1002.12
2016-05-12T05:29:14.517Z,1002.1
2016-05-12T05:30:14.551Z,1002.11
2016-05-12T05:31:14.570Z,1002.09
2016-05-12T05:32:14.604Z,1002.13
2016-05-12T05:33:14.637Z,1002.1
2016-05-12T05:34:14.671Z,1002.19
2016-05-12T05:35:14.690Z,1002.15
2016-05-12T05:36:14.723Z,1002.06
2016-05-12T05:38:14.775Z,1002.13
2016-05-12T05:39:14.810Z,1002.11
2016-05-12T05:40:14.845Z,1002.16
2016-05-12T05:41:14.862Z,1002.11
2016-05-12T05:42:14.896Z,1002.09
2016-05-12T05:43:14.930Z,1002.11
2016-05-12T05:44:14.947Z,1002.11
2016-05-12T05:45:14.983Z,1002.16
2016-05-12T05:46:15.016Z,1002.15
2016-05-12T05:47:15.050Z,1002.17
2016-05-12T05:48:15.069Z,1002.17
2016-05-12T05:49:15.102Z,1002.18
2016-05-12T05:50:15.136Z,1002.18
2016-05-12T05:51:15.170Z,1002.17
2016-05-12T05:53:15.222Z,1002.17
2016-05-12T05:54:15.256Z,1002.14
2016-05-12T05:55:15.290Z,1002.1
2016-05-12T05:56:15.309Z,1002.09
2016-05-12T05:57:15.343Z,1002.12
2016-05-12T05:58:15.376Z,1002.13
2016-05-12T05:59:15.410Z,1002.12
2016-05-12T06:00:15.444Z,1002.09
2016-05-12T06:01:15.463Z,1002.09
2016-05-12T06:02:15.496Z,1002.13
2016-05-12T06:03:15.531Z,1002.13
2016-05-12T06:04:15.565Z,1002.12
2016-05-12T06:05:15.599Z,1002.11
2016-05-12T06:06:15.617Z,1002.08
2016-05-12T06:07:15.995Z,1002.1
2016-05-12T06:08:15.684Z,1002.1
2016-05-12T06:09:15.718Z,1002.14
2016-05-12T06:10:15.752Z,1002.14
2016-05-12T06:11:15.771Z,1002.13
2016-05-12T06:12:15.805Z,1002.1
2016-05-12T06:13:15.839Z,1002.15
2016-05-12T06:14:15.872Z,1002.13
2016-05-12T06:15:15.906Z,1002.09
2016-05-12T06:16:15.941Z,1002.11
2016-05-12T06:17:15.990Z,1002.15
2016-05-12T06:18:15.992Z,1002.11
2016-05-12T06:19:16.027Z,1002.12
2016-05-12T06:20:16.061Z,1002.15
2016-05-12T06:21:16.094Z,1002.11
2016-05-12T06:22:16.128Z,1002.11
2016-05-12T06:23:16.163Z,1002.11
2016-05-12T06:25:16.230Z,1002.11
2016-05-12T06:26:16.264Z,1002.08
2016-05-12T06:27:16.283Z,1002.04
2016-05-12T06:28:16.316Z,1002.09
2016-05-12T06:29:16.351Z,1002.06
2016-05-12T06:30:16.385Z,1002.04
2016-05-12T06:31:16.574Z,1002.07
2016-05-12T06:32:16.452Z,1002.09
2016-05-12T06:33:16.501Z,1002
2016-05-12T06:34:16.521Z,1001.98
2016-05-12T06:35:16.554Z,1002.07
2016-05-12T06:36:16.587Z,1002.05
2016-05-12T06:37:16.607Z,1001.94
2016-05-12T06:38:16.640Z,1001.96
2016-05-12T06:39:16.690Z,1001.99
2016-05-12T06:41:16.743Z,1001.97
2016-05-12T06:42:16.776Z,1001.99
2016-05-12T06:43:16.810Z,1001.95
2016-05-12T06:44:16.844Z,1001.99
2016-05-12T06:45:16.878Z,1001.97
2016-05-12T06:46:16.912Z,1002.03
2016-05-12T06:47:16.945Z,1001.98
2016-05-12T06:48:16.995Z,1001.94
2016-05-12T06:49:17.013Z,1001.89
2016-05-12T06:50:17.090Z,1001.95
2016-05-12T06:51:17.167Z,1001.97
2016-05-12T06:52:17.244Z,1001.98
2016-05-12T06:53:17.321Z,1002.04
2016-05-12T06:54:17.398Z,1001.96
2016-05-12T06:55:17.447Z,1001.96
2016-05-12T06:57:17.546Z,1001.93
2016-05-12T06:58:17.595Z,1001.91
2016-05-12T06:59:17.644Z,1001.93
2016-05-12T07:00:17.684Z,1001.91
2016-05-12T07:01:17.724Z,1001.92
2016-05-12T07:02:17.762Z,1001.92
2016-05-12T07:03:17.802Z,1001.91
2016-05-12T07:04:17.841Z,1001.87
2016-05-12T07:05:17.877Z,1001.9
2016-05-12T07:06:17.913Z,1001.87
2016-05-12T07:07:17.949Z,1001.88
2016-05-12T07:08:17.985Z,1001.93
2016-05-12T07:09:18.021Z,1001.94
2016-05-12T07:10:18.056Z,1001.89
2016-05-12T07:11:18.090Z,1001.81
2016-05-12T07:13:18.159Z,1001.84
2016-05-12T07:14:18.194Z,1001.93
2016-05-12T07:15:18.228Z,1001.9
2016-05-12T07:16:18.263Z,1001.87
2016-05-12T07:17:18.297Z,1001.89
2016-05-12T07:18:18.331Z,1001.87
2016-05-12T07:19:18.365Z,1001.87
2016-05-12T07:20:18.400Z,1001.85
2016-05-12T07:21:18.433Z,1001.81
2016-05-12T07:22:18.483Z,1001.85
2016-05-12T07:23:18.501Z,1001.78
2016-05-12T07:24:18.551Z,1001.79
2016-05-12T07:25:18.586Z,1001.77
2016-05-12T07:26:18.619Z,1001.78
2016-05-12T07:28:18.687Z,1001.77
2016-05-12T07:29:18.721Z,1001.78
2016-05-12T07:30:18.755Z,1001.79
2016-05-12T07:31:18.789Z,1001.81
2016-05-12T07:32:18.822Z,1001.79
2016-05-12T07:33:18.857Z,1001.77
2016-05-12T07:34:18.891Z,1001.76
2016-05-12T07:35:18.924Z,1001.73
2016-05-12T07:36:18.990Z,1001.71
2016-05-12T07:37:19.008Z,1001.71
2016-05-12T07:38:19.026Z,1001.75
2016-05-12T07:39:19.060Z,1001.72
2016-05-12T07:40:19.110Z,1001.7
2016-05-12T07:41:19.129Z,1001.69
2016-05-12T07:42:19.177Z,1001.7
2016-05-12T07:43:19.212Z,1001.69
2016-05-12T07:44:19.245Z,1001.69
2016-05-12T07:45:19.280Z,1001.69
2016-05-12T07:46:19.313Z,1001.66
2016-05-12T07:47:19.348Z,1001.66
2016-05-12T07:48:19.381Z,1001.63
2016-05-12T07:49:19.415Z,1001.66
2016-05-12T07:50:19.449Z,1001.64
2016-05-12T07:51:19.483Z,1001.66
2016-05-12T07:52:19.518Z,1001.67
2016-05-12T07:53:19.551Z,1001.67
2016-05-12T07:54:19.585Z,1001.61
2016-05-12T07:55:19.619Z,1001.7
2016-05-12T07:56:19.669Z,1001.58
2016-05-12T07:57:19.703Z,1001.6
2016-05-12T07:58:19.720Z,1001.61
2016-05-12T08:00:19.804Z,1001.59
2016-05-12T08:01:19.838Z,1001.59
2016-05-12T08:02:19.872Z,1001.59
2016-05-12T08:03:19.906Z,1001.47
2016-05-12T08:04:19.940Z,1001.52
2016-05-12T08:05:19.974Z,1001.52
2016-05-12T08:06:20.024Z,1001.52
2016-05-12T08:07:20.042Z,1001.46
2016-05-12T08:08:20.076Z,1001.5
2016-05-12T08:09:20.109Z,1001.37
2016-05-12T08:10:20.144Z,1001.42
2016-05-12T08:11:20.178Z,1001.46
2016-05-12T08:12:20.227Z,1001.39
2016-05-12T08:13:20.246Z,1001.45
2016-05-12T08:14:20.295Z,1001.4
2016-05-12T08:16:20.363Z,1001.4
2016-05-12T08:17:20.396Z,1001.37
2016-05-12T08:18:20.432Z,1001.35
2016-05-12T08:19:20.465Z,1001.34
2016-05-12T08:20:20.498Z,1001.36
2016-05-12T08:21:20.533Z,1001.29
2016-05-12T08:22:20.567Z,1001.32
2016-05-12T08:23:20.600Z,1001.36
2016-05-12T08:24:20.634Z,1001.29
2016-05-12T08:25:20.668Z,1001.29
2016-05-12T08:26:20.717Z,1001.25
2016-05-12T08:27:20.752Z,1001.25
2016-05-12T08:28:22.661Z,1001.21
2016-05-12T08:29:20.819Z,1001.14
2016-05-12T08:30:20.853Z,1001.24
2016-05-12T08:32:20.922Z,1001.24
2016-05-12T08:33:22.878Z,1001.22
2016-05-12T08:34:20.990Z,1001.21
2016-05-12T08:35:21.024Z,1001.23
2016-05-12T08:36:21.073Z,1001.16
2016-05-12T08:37:21.107Z,1001.11
2016-05-12T08:38:21.141Z,1001.15
2016-05-12T08:39:21.175Z,1001.13
2016-05-12T08:40:21.208Z,1001.08
2016-05-12T08:41:21.243Z,1001.11
2016-05-12T08:42:21.276Z,1001.1
2016-05-12T08:43:21.310Z,1001.04
2016-05-12T08:44:21.344Z,1001.06
2016-05-12T08:45:21.394Z,1001.07
2016-05-12T08:46:21.412Z,1001.09
2016-05-12T08:48:23.027Z,1001.05
2016-05-12T08:49:21.529Z,1001.15
2016-05-12T08:50:21.564Z,1000.97
2016-05-12T08:51:21.598Z,1001.05
2016-05-12T08:52:21.631Z,1001.01
2016-05-12T08:53:21.665Z,1001.09
2016-05-12T08:54:21.700Z,1001.01
2016-05-12T08:55:21.733Z,1001.07
2016-05-12T08:56:21.768Z,1001.1
2016-05-12T08:57:21.801Z,1001.04
2016-05-12T08:58:21.835Z,1001.06
2016-05-12T08:59:21.885Z,1001.05
2016-05-12T09:00:21.919Z,1001.15
2016-05-12T09:01:21.952Z,1001.01
2016-05-12T09:03:22.020Z,1001.07
2016-05-12T09:04:22.055Z,1001.04
2016-05-12T09:05:22.088Z,1001
2016-05-12T09:06:22.122Z,1001.04
2016-05-12T09:07:22.156Z,1001.01
2016-05-12T09:08:22.205Z,1000.93
2016-05-12T09:09:22.240Z,1000.99
2016-05-12T09:10:22.274Z,1000.87
2016-05-12T09:11:22.308Z,1000.98
2016-05-12T09:12:22.341Z,1000.89
2016-05-12T09:13:22.376Z,1000.86
2016-05-12T09:14:22.409Z,1000.88
2016-05-12T09:15:22.444Z,1000.88
2016-05-12T09:16:22.493Z,1000.85
2016-05-12T09:17:22.512Z,1000.87
2016-05-12T09:18:22.561Z,1000.8
2016-05-12T09:19:22.595Z,1000.83
2016-05-12T09:20:22.629Z,1000.83
2016-05-12T09:21:22.663Z,1000.84
2016-05-12T09:22:22.696Z,1000.79
2016-05-12T09:23:22.731Z,1000.81
2016-05-12T09:24:22.764Z,1000.76
2016-05-12T09:25:22.798Z,1000.7
2016-05-12T09:26:22.832Z,1000.84
2016-05-12T09:27:22.866Z,1000.72
2016-05-12T09:28:22.916Z,1000.77
2016-05-12T09:29:22.950Z,1000.64
2016-05-12T09:30:22.984Z,1000.75
2016-05-12T09:31:23.017Z,1000.66
2016-05-12T09:32:23.052Z,1000.68
2016-05-12T09:33:23.086Z,1000.66
2016-05-12T09:35:23.153Z,1000.71
2016-05-12T09:36:23.188Z,1000.59
2016-05-12T09:37:23.222Z,1000.56
2016-05-12T09:38:23.255Z,1000.52
2016-05-12T09:39:23.289Z,1000.63
2016-05-12T09:40:23.339Z,1000.67
2016-05-12T09:41:23.372Z,1000.61
2016-05-12T09:42:23.407Z,1000.67
2016-05-12T09:43:23.440Z,1000.61
2016-05-12T09:44:23.474Z,1000.48
2016-05-12T09:45:23.508Z,1000.47
2016-05-12T09:46:23.542Z,1000.61
2016-05-12T09:47:23.577Z,1000.62
2016-05-12T09:48:23.610Z,1000.62
2016-05-12T09:49:23.644Z,1000.57
2016-05-12T09:51:23.712Z,1000.51
2016-05-12T09:52:23.746Z,1000.48
2016-05-12T09:53:23.779Z,1000.46
2016-05-12T09:54:23.814Z,1000.45
2016-05-12T09:55:23.848Z,1000.52
2016-05-12T09:56:23.882Z,1000.68
2016-05-12T09:57:23.915Z,1000.39
2016-05-12T09:58:23.950Z,1000.44
2016-05-12T09:59:23.983Z,1000.41
2016-05-12T10:00:24.017Z,1000.32
2016-05-12T10:01:24.333Z,1000.53
2016-05-12T10:02:24.085Z,1000.53
2016-05-12T10:03:24.120Z,1000.39
2016-05-12T10:04:24.154Z,1000.31
2016-05-12T10:05:24.187Z,1000.31
2016-05-12T10:07:24.255Z,1000.28
2016-05-12T10:08:24.289Z,1000.34
2016-05-12T10:09:24.323Z,1000.3
2016-05-12T10:10:24.357Z,1000.19
2016-05-12T10:11:24.391Z,1000.2
2016-05-12T10:12:24.424Z,1000.27
2016-05-12T10:13:24.458Z,1000.28
2016-05-12T10:14:24.493Z,1000.31
2016-05-12T10:15:24.526Z,1000.25
2016-05-12T10:16:24.763Z,1000.14
2016-05-12T10:17:24.594Z,1000.16
2016-05-12T10:18:24.629Z,1000.21
2016-05-12T10:19:24.679Z,1000.24
2016-05-12T10:20:24.696Z,1000.1
2016-05-12T10:21:24.730Z,1000.16
2016-05-12T10:23:24.815Z,1000.15
2016-05-12T10:24:24.848Z,1000.03
2016-05-12T10:25:24.882Z,1000.16
2016-05-12T10:26:24.915Z,999.97
2016-05-12T10:27:24.950Z,1000.01
2016-05-12T10:28:24.984Z,999.98
2016-05-12T10:29:25.017Z,1000.13
2016-05-12T10:30:25.051Z,1000.08
2016-05-12T10:31:25.475Z,1000.03
2016-05-12T10:32:25.119Z,1000.11
2016-05-12T10:33:25.170Z,1000
2016-05-12T10:34:25.202Z,999.83
2016-05-12T10:35:25.236Z,999.95
2016-05-12T10:36:25.270Z,999.94
2016-05-12T10:38:25.339Z,999.98
2016-05-12T10:39:25.388Z,999.92
2016-05-12T10:40:25.422Z,999.94
2016-05-12T10:41:25.455Z,999.93
2016-05-12T10:42:25.490Z,999.83
2016-05-12T10:43:25.524Z,999.91
2016-05-12T10:44:25.558Z,999.9
2016-05-12T10:45:25.607Z,999.89
2016-05-12T10:46:26.329Z,999.88
2016-05-12T10:47:25.675Z,999.82
2016-05-12T10:48:25.710Z,999.65
2016-05-12T10:49:25.743Z,999.66
2016-05-12T10:50:25.776Z,999.83
2016-05-12T10:51:25.811Z,999.85
2016-05-12T10:52:25.846Z,999.84
2016-05-12T10:53:25.879Z,999.89
2016-05-12T10:54:25.929Z,999.81
2016-05-12T10:55:25.962Z,999.7
2016-05-12T10:56:25.996Z,999.8
2016-05-12T10:57:26.031Z,999.82
2016-05-12T10:58:26.065Z,999.72
2016-05-12T10:59:26.098Z,999.82
2016-05-12T11:00:26.131Z,999.78
2016-05-12T11:01:26.166Z,999.89
2016-05-12T11:02:26.216Z,999.65
2016-05-12T11:03:26.249Z,999.65
2016-05-12T11:04:26.283Z,999.69
2016-05-12T11:05:26.317Z,999.75
2016-05-12T11:06:26.351Z,999.94
2016-05-12T11:07:26.386Z,999.92
2016-05-12T11:08:26.420Z,999.49
2016-05-12T11:10:26.487Z,999.77
2016-05-12T11:11:26.522Z,999.89
2016-05-12T11:12:26.555Z,999.82
2016-05-12T11:13:26.589Z,999.78
2016-05-12T11:14:26.622Z,999.81
2016-05-12T11:15:26.657Z,999.89
2016-05-12T11:16:26.691Z,999.95
2016-05-12T11:17:26.724Z,999.95
2016-05-12T11:18:26.774Z,999.98
2016-05-12T11:19:26.808Z,999.99
2016-05-12T11:20:26.842Z,1000.09
2016-05-12T11:21:26.876Z,1000.16
2016-05-12T11:22:26.910Z,1000.24
2016-05-12T11:23:26.943Z,1000.18
2016-05-12T11:24:26.978Z,999.73
2016-05-12T11:26:27.062Z,999.46
2016-05-12T11:27:27.095Z,999.36
2016-05-12T11:28:27.129Z,999.32
2016-05-12T11:29:27.163Z,999.3
2016-05-12T11:30:27.198Z,999.99
2016-05-12T11:31:27.231Z,999.97
2016-05-12T11:32:27.264Z,1000.04
2016-05-12T11:33:27.299Z,1000.05
2016-05-12T11:34:27.333Z,999.95
2016-05-12T11:35:27.366Z,999.93
2016-05-12T11:36:27.401Z,999.95
2016-05-12T11:37:27.434Z,999.18
2016-05-12T11:38:27.469Z,999.06
2016-05-12T11:39:27.502Z,999.06
2016-05-12T11:40:27.537Z,999.17
2016-05-12T11:42:27.604Z,999.11
2016-05-12T11:43:27.639Z,999.05
2016-05-12T11:44:27.672Z,999.04
2016-05-12T11:45:27.706Z,999.04
2016-05-12T11:46:27.741Z,999.05
2016-05-12T11:47:27.774Z,999.13
2016-05-12T11:48:27.808Z,999.17
2016-05-12T11:49:27.841Z,1000.21
2016-05-12T11:50:27.877Z,1000.25
2016-05-12T11:51:27.894Z,1000.04
2016-05-12T11:52:27.928Z,1000.19
2016-05-12T11:53:27.962Z,1000.19
2016-05-12T11:54:28.012Z,1000.18
2016-05-12T11:55:28.030Z,1000
2016-05-12T11:56:28.064Z,1000.01
2016-05-12T11:58:28.132Z,999.64
2016-05-12T11:59:28.165Z,999.4
2016-05-12T12:00:28.200Z,999.02
2016-05-12T12:01:28.218Z,998.83
2016-05-12T12:02:28.252Z,998.86
2016-05-12T12:03:28.287Z,998.89
2016-05-12T12:04:28.320Z,998.82
2016-05-12T12:05:28.353Z,998.77
2016-05-12T12:06:28.387Z,998.75
2016-05-12T12:07:28.422Z,998.71
2016-05-12T12:08:28.455Z,998.77
2016-05-12T12:09:28.490Z,998.69
2016-05-12T12:10:28.523Z,998.63
2016-05-12T12:11:28.557Z,998.67
2016-05-12T12:13:28.610Z,998.67
2016-05-12T12:14:28.643Z,998.69
2016-05-12T12:15:28.677Z,998.68
2016-05-12T12:16:28.711Z,998.71
2016-05-12T12:17:28.730Z,998.63
2016-05-12T12:18:28.764Z,998.61
2016-05-12T12:19:28.797Z,998.67
2016-05-12T12:20:28.832Z,998.73
2016-05-12T12:21:28.865Z,998.62
2016-05-12T12:22:28.900Z,998.63
2016-05-12T12:23:28.918Z,998.65
2016-05-12T12:24:28.952Z,998.65
2016-05-12T12:25:28.985Z,998.67
2016-05-12T12:26:29.020Z,998.62
2016-05-12T12:27:29.054Z,998.61
2016-05-12T12:28:29.087Z,998.56
2016-05-12T12:29:29.121Z,998.57
2016-05-12T12:30:29.139Z,998.5
2016-05-12T12:31:29.158Z,998.58
2016-05-12T12:32:29.193Z,998.44
2016-05-12T12:33:29.226Z,998.59
2016-05-12T12:34:29.291Z,998.51
2016-05-12T12:35:29.294Z,998.36
2016-05-12T12:36:29.312Z,998.44
2016-05-12T12:37:29.346Z,998.44
2016-05-12T12:38:29.381Z,998.36
2016-05-12T12:39:29.414Z,998.33
2016-05-12T12:40:29.433Z,998.36
2016-05-12T12:41:29.467Z,998.37
2016-05-12T12:42:29.500Z,998.43
2016-05-12T12:43:29.534Z,998.39
2016-05-12T12:45:29.586Z,998.32
2016-05-12T12:46:29.620Z,998.29
2016-05-12T12:47:29.638Z,998.43
2016-05-12T12:48:29.672Z,998.28
2016-05-12T12:49:29.706Z,998.28
2016-05-12T12:50:29.725Z,998.27
2016-05-12T12:51:29.758Z,998.33
2016-05-12T12:52:29.793Z,998.35